Monterrey, Mexico

1:21 PM CST on January 16, 2017 (GMT -0600)
Gen Mariano Escobedo International | | Change Station

Elev 1270 ft 25.78 °N, 100.10 °W | Updated 38 minutes ago

Mostly Cloudy
Mostly Cloudy
75 °F
Feels Like 75 °F
N
4
Wind Variable Wind from SSE

Today
High -- | Low -- °F
--% Chance of Precip.
Yesterday
High -- | Low -- °F
Precip. -- in
Pressure 29.94 in
Visibility 10.0 miles
Clouds Few 4000 ft
Mostly Cloudy 20000 ft
Dew Point 55 °F
Humidity 50%
Rainfall 0.00 in
Snow Depth Not available.
7:29 AM 6:12 PM
Waning Gibbous, 79% visible
METAR MMMY 161843Z 15003KT 10SM FEW040 BKN200 24/13 A2994 RMK 8/502
Pressure 29.94 in
Visibility 10.0 miles
Clouds Few 4000 ft
Mostly Cloudy 20000 ft
Dew Point 55 °F
Humidity 50%
Rainfall 0.00 in
Snow Depth Not available.
7:29 AM 6:12 PM
Waning Gibbous, 79% visible
METAR MMMY 161843Z 15003KT 10SM FEW040 BKN200 24/13 A2994 RMK 8/502

Get Your Daily Forecast Email!

Thanks for signing up!

Be on the lookout for a verification email in your inbox.

You'll start receiving the daily forecast at 8 AM.

×

10-Day Weather Forecast

No radar image for this location.
×

Almanac

Astronomy

Jan. 16, 2017 Rise Set
Actual Time
Civil Twilight
Nautical Twilight
Astronomical Twilight
Moon
Length of Visible Light
Length of Day
Tomorrow will be .
, % of the Moon is Illuminated

Today's Extremes

Country Highs Country Lows

Community

WunderPhotos

Upload Photos

1,962,540 photos uploaded!

WunderBlog® & News

Nearby

Air Quality

  Air Quality AQ Index Pollutant
Not available.

Snow Depth

Station Depth Elevation

Earthquake Activity

City Distance Mag. Time & Date
Minimum magnitude displayed is 2.5.

Coastal Water Temperatures

Place Temperature

Stations

Nearby Weather Stations

Station Location Temp. Windchill Dew Point Humidity Wind Precip. Elev Updated Type